VOHY/HYD METAR and TAF weather

Enter ICAO airport designator
Station Type Date Time Source
VOHY METAR 2024/04/17 16:00 UTC NOAA

VOHY 171600Z 32005KT 5000 HZ SCT020 30/18 Q1013 NOSIG


Station Type Date Time Source
VOHY Decoded METAR 2024/04/17 16:00 UTC NOAA

Hyderabad Airport, India (VOHY) 17-27N 078-28E 545M
Apr 17, 2024 - 12:00 PM EDT / 2024.04.17 1600 UTC
Wind: from the NW (320 degrees) at 6 MPH (5 KT):0
Visibility: 3 mile(s):0
Sky conditions: partly cloudy
Weather: haze
Temperature: 86 F (30 C)
Dew Point: 64 F (18 C)
Relative Humidity: 48%
Pressure (altimeter): 29.91 in. Hg (1013 hPa)
ob: VOHY 171600Z 32005KT 5000 HZ SCT020 30/18 Q1013 NOSIG
cycle: 16

Station Type Date Time Source
VOHY TAF 2024/04/08 00:00 UTC NOAA